sensor_id;sensor_type;location;lat;lon;timestamp;pressure;altitude;pressure_sealevel;temperature;humidity
2036;BME280;23642;42.658;23.350;2023-03-13T00:01:37;54883.88;;;-146.31;60.28
2036;BME280;23642;42.658;23.350;2023-03-13T00:04:05;54850.81;;;-146.31;60.18
2036;BME280;23642;42.658;23.350;2023-03-13T00:06:33;54877.66;;;-146.31;60.08
2036;BME280;23642;42.658;23.350;2023-03-13T00:09:00;54832.25;;;-146.31;60.36
2036;BME280;23642;42.658;23.350;2023-03-13T00:11:30;54852.88;;;-146.31;60.46
2036;BME280;23642;42.658;23.350;2023-03-13T00:14:00;54879.72;;;-146.31;60.39
2036;BME280;23642;42.658;23.350;2023-03-13T00:16:28;54877.66;;;-146.31;61.21
2036;BME280;23642;42.658;23.350;2023-03-13T00:18:56;54836.38;;;-146.31;61.63
2036;BME280;23642;42.658;23.350;2023-03-13T00:21:26;54836.38;;;-146.31;61.16
2036;BME280;23642;42.658;23.350;2023-03-13T00:23:54;54844.63;;;-146.31;61.04
2036;BME280;23642;42.658;23.350;2023-03-13T00:26:23;54832.25;;;-146.31;61.23
2036;BME280;23642;42.658;23.350;2023-03-13T00:28:52;54826.03;;;-146.31;61.30
2036;BME280;23642;42.658;23.350;2023-03-13T00:31:21;54834.31;;;-146.31;60.67
2036;BME280;23642;42.658;23.350;2023-03-13T00:33:49;54852.88;;;-146.31;60.88
2036;BME280;23642;42.658;23.350;2023-03-13T00:36:18;54873.53;;;-146.31;60.55
2036;BME280;23642;42.658;23.350;2023-03-13T00:38:46;54832.25;;;-146.31;60.33
2036;BME280;23642;42.658;23.350;2023-03-13T00:41:14;54832.25;;;-146.31;59.96
2036;BME280;23642;42.658;23.350;2023-03-13T00:43:43;54863.22;;;-146.31;60.09
2036;BME280;23642;42.658;23.350;2023-03-13T00:46:13;54819.84;;;-146.31;60.53
2036;BME280;23642;42.658;23.350;2023-03-13T00:48:40;54846.69;;;-146.31;60.86
2036;BME280;23642;42.658;23.350;2023-03-13T00:51:08;54836.38;;;-146.31;60.21
2036;BME280;23642;42.658;23.350;2023-03-13T00:53:36;54840.50;;;-146.31;60.11
2036;BME280;23642;42.658;23.350;2023-03-13T00:56:05;54832.25;;;-146.31;60.46
2036;BME280;23642;42.658;23.350;2023-03-13T00:58:33;54852.88;;;-146.31;59.75
2036;BME280;23642;42.658;23.350;2023-03-13T01:01:06;54863.22;;;-146.31;61.03
2036;BME280;23642;42.658;23.350;2023-03-13T01:03:35;54817.78;;;-146.31;60.96
2036;BME280;23642;42.658;23.350;2023-03-13T01:06:04;54852.88;;;-146.31;60.87
2036;BME280;23642;42.658;23.350;2023-03-13T01:08:31;54840.50;;;-146.31;61.96
2036;BME280;23642;42.658;23.350;2023-03-13T01:10:59;54844.63;;;-146.31;61.72
2036;BME280;23642;42.658;23.350;2023-03-13T01:13:26;54877.66;;;-146.31;62.06
2036;BME280;23642;42.658;23.350;2023-03-13T01:15:53;54857.03;;;-146.31;62.73
2036;BME280;23642;42.658;23.350;2023-03-13T01:18:20;54859.09;;;-146.31;63.51
2036;BME280;23642;42.658;23.350;2023-03-13T01:20:49;54867.34;;;-146.31;63.23
2036;BME280;23642;42.658;23.350;2023-03-13T01:23:15;54857.03;;;-146.31;63.00
2036;BME280;23642;42.658;23.350;2023-03-13T01:25:45;54834.31;;;-146.31;62.90
2036;BME280;23642;42.658;23.350;2023-03-13T01:28:12;54852.88;;;-146.31;63.18
2036;BME280;23642;42.658;23.350;2023-03-13T01:30:39;54852.88;;;-146.31;63.75
2036;BME280;23642;42.658;23.350;2023-03-13T01:33:05;54848.75;;;-146.31;64.02
2036;BME280;23642;42.658;23.350;2023-03-13T01:35:32;54846.69;;;-146.31;64.25
2036;BME280;23642;42.658;23.350;2023-03-13T01:38:01;54846.69;;;-146.31;64.63
2036;BME280;23642;42.658;23.350;2023-03-13T01:40:28;54807.47;;;-146.31;64.28
2036;BME280;23642;42.658;23.350;2023-03-13T01:42:56;54836.38;;;-146.31;65.03
2036;BME280;23642;42.658;23.350;2023-03-13T01:48:35;54786.81;;;-146.31;64.40
2036;BME280;23642;42.658;23.350;2023-03-13T01:51:06;54805.38;;;-146.31;63.71
2036;BME280;23642;42.658;23.350;2023-03-13T01:53:37;54836.38;;;-146.31;63.78
2036;BME280;23642;42.658;23.350;2023-03-13T01:56:10;54799.19;;;-146.31;64.33
2036;BME280;23642;42.658;23.350;2023-03-13T01:58:39;54821.91;;;-146.31;64.54
2036;BME280;23642;42.658;23.350;2023-03-13T02:01:06;54815.72;;;-146.31;65.11
2036;BME280;23642;42.658;23.350;2023-03-13T02:03:34;54809.53;;;-146.31;65.32
2036;BME280;23642;42.658;23.350;2023-03-13T02:06:03;54807.47;;;-146.31;65.78
2036;BME280;23642;42.658;23.350;2023-03-13T02:08:36;54776.47;;;-146.31;65.73
2036;BME280;23642;42.658;23.350;2023-03-13T02:11:12;54782.69;;;-146.31;65.84
2036;BME280;23642;42.658;23.350;2023-03-13T02:13:42;54770.28;;;-146.31;66.78
2036;BME280;23642;42.658;23.350;2023-03-13T02:16:10;54764.09;;;-146.31;67.16
2036;BME280;23642;42.658;23.350;2023-03-13T02:18:37;54786.81;;;-146.31;66.90
2036;BME280;23642;42.658;23.350;2023-03-13T02:21:13;54770.28;;;-146.31;67.29
2036;BME280;23642;42.658;23.350;2023-03-13T02:23:49;54764.09;;;-146.31;67.73
2036;BME280;23642;42.658;23.350;2023-03-13T02:26:25;54766.16;;;-146.31;68.08
2036;BME280;23642;42.658;23.350;2023-03-13T02:28:52;54772.34;;;-146.31;69.04
2036;BME280;23642;42.658;23.350;2023-03-13T02:31:19;54716.59;;;-146.31;69.84
2036;BME280;23642;42.658;23.350;2023-03-13T02:33:46;54685.63;;;-146.31;71.51
2036;BME280;23642;42.658;23.350;2023-03-13T02:36:13;54667.03;;;-146.31;71.64
2036;BME280;23642;42.658;23.350;2023-03-13T02:38:45;54654.66;;;-146.31;72.61
2036;BME280;23642;42.658;23.350;2023-03-13T02:41:15;54621.59;;;-146.31;73.59
2036;BME280;23642;42.658;23.350;2023-03-13T02:43:49;54563.78;;;-146.31;74.13
2036;BME280;23642;42.658;23.350;2023-03-13T02:46:18;54539.00;;;-146.31;74.86
2036;BME280;23642;42.658;23.350;2023-03-13T02:48:47;54501.84;;;-146.31;74.93
2036;BME280;23642;42.658;23.350;2023-03-13T02:51:18;54419.25;;;-146.31;74.32
2036;BME280;23642;42.658;23.350;2023-03-13T02:53:48;54404.78;;;-146.31;72.63
2036;BME280;23642;42.658;23.350;2023-03-13T02:56:17;54402.72;;;-146.31;72.14
2036;BME280;23642;42.658;23.350;2023-03-13T02:58:46;54398.59;;;-146.31;72.81
2036;BME280;23642;42.658;23.350;2023-03-13T03:01:13;54404.78;;;-146.31;74.61
2036;BME280;23642;42.658;23.350;2023-03-13T03:03:40;54316.00;;;-146.31;75.90
2036;BME280;23642;42.658;23.350;2023-03-13T03:06:07;54311.88;;;-146.31;75.87
2036;BME280;23642;42.658;23.350;2023-03-13T03:08:34;54280.91;;;-146.31;76.51
2036;BME280;23642;42.658;23.350;2023-03-13T03:11:01;54260.25;;;-146.31;78.20
2036;BME280;23642;42.658;23.350;2023-03-13T03:13:30;54117.78;;;-146.31;78.96
2036;BME280;23642;42.658;23.350;2023-03-13T03:16:00;54113.66;;;-146.31;77.30
2036;BME280;23642;42.658;23.350;2023-03-13T03:18:30;54080.63;;;-146.31;77.66
2036;BME280;23642;42.658;23.350;2023-03-13T03:20:59;54084.75;;;-146.31;77.85
2036;BME280;23642;42.658;23.350;2023-03-13T03:23:26;54002.19;;;-146.31;78.65
2036;BME280;23642;42.658;23.350;2023-03-13T03:25:53;53956.75;;;-146.31;80.62
2036;BME280;23642;42.658;23.350;2023-03-13T03:28:20;53872.13;;;-146.31;83.25
2036;BME280;23642;42.658;23.350;2023-03-13T03:30:46;53709.03;;;-146.31;85.34
2036;BME280;23642;42.658;23.350;2023-03-13T03:33:18;53583.09;;;-146.31;86.54
2036;BME280;23642;42.658;23.350;2023-03-13T03:35:45;53502.59;;;-146.31;86.49
2036;BME280;23642;42.658;23.350;2023-03-13T03:38:12;53391.13;;;-146.31;88.32
2036;BME280;23642;42.658;23.350;2023-03-13T03:40:39;53178.53;;;-146.31;88.87
2036;BME280;23642;42.658;23.350;2023-03-13T03:43:05;53131.03;;;-146.31;88.14
2036;BME280;23642;42.658;23.350;2023-03-13T03:45:32;53044.34;;;-146.31;88.29
2036;BME280;23642;42.658;23.350;2023-03-13T03:47:59;52972.13;;;-146.31;89.13
2036;BME280;23642;42.658;23.350;2023-03-13T03:50:27;52842.09;;;-146.31;89.06
2036;BME280;23642;42.658;23.350;2023-03-13T03:52:54;52707.94;;;-146.31;90.51
2036;BME280;23642;42.658;23.350;2023-03-13T03:55:21;52516.03;;;-146.31;90.87
2036;BME280;23642;42.658;23.350;2023-03-13T03:57:47;52326.16;;;-146.31;91.28
2036;BME280;23642;42.658;23.350;2023-03-13T04:00:15;52218.88;;;-146.31;90.79
2036;BME280;23642;42.658;23.350;2023-03-13T04:02:43;52146.66;;;-146.31;91.09
2036;BME280;23642;42.658;23.350;2023-03-13T04:05:10;52082.69;;;-146.31;90.87
2036;BME280;23642;42.658;23.350;2023-03-13T04:07:40;51876.34;;;-146.31;92.04
2036;BME280;23642;42.658;23.350;2023-03-13T04:10:08;51655.59;;;-146.31;92.10
2036;BME280;23642;42.658;23.350;2023-03-13T04:12:35;51560.69;;;-146.31;92.15
2036;BME280;23642;42.658;23.350;2023-03-13T04:15:02;51403.88;;;-146.31;92.48
2036;BME280;23642;42.658;23.350;2023-03-13T04:17:29;51090.34;;;-146.31;93.72
2036;BME280;23642;42.658;23.350;2023-03-13T04:19:56;50700.50;;;-146.31;93.74
2036;BME280;23642;42.658;23.350;2023-03-13T04:22:24;50407.63;;;-146.31;94.16
2036;BME280;23642;42.658;23.350;2023-03-13T04:24:52;50133.34;;;-146.31;94.76
2036;BME280;23642;42.658;23.350;2023-03-13T04:27:19;49842.56;;;-146.31;95.28
2036;BME280;23642;42.658;23.350;2023-03-13T04:29:45;49665.25;;;-146.31;95.69
2036;BME280;23642;42.658;23.350;2023-03-13T04:32:12;49543.59;;;-146.31;95.44
2036;BME280;23642;42.658;23.350;2023-03-13T04:34:39;49442.56;;;-146.31;95.09
2036;BME280;23642;42.658;23.350;2023-03-13T04:37:07;49370.41;;;-146.31;95.38
2036;BME280;23642;42.658;23.350;2023-03-13T04:39:36;49244.63;;;-146.31;95.40
2036;BME280;23642;42.658;23.350;2023-03-13T04:42:04;49224.03;;;-146.31;95.14
2036;BME280;23642;42.658;23.350;2023-03-13T04:44:31;49195.16;;;-146.31;95.29
2036;BME280;23642;42.658;23.350;2023-03-13T04:46:58;49191.03;;;-146.31;95.28
2036;BME280;23642;42.658;23.350;2023-03-13T04:49:25;49180.72;;;-146.31;95.24
2036;BME280;23642;42.658;23.350;2023-03-13T04:51:52;49339.47;;;-146.31;93.74
2036;BME280;23642;42.658;23.350;2023-03-13T04:54:18;49529.16;;;-146.31;93.22
2036;BME280;23642;42.658;23.350;2023-03-13T04:56:46;49525.03;;;-146.31;93.04
2036;BME280;23642;42.658;23.350;2023-03-13T04:59:15;49516.78;;;-146.31;92.83
2036;BME280;23642;42.658;23.350;2023-03-13T05:01:42;49675.56;;;-146.31;92.12
2036;BME280;23642;42.658;23.350;2023-03-13T05:04:09;49784.84;;;-146.31;91.36
2036;BME280;23642;42.658;23.350;2023-03-13T05:06:37;49887.94;;;-146.31;90.87
2036;BME280;23642;42.658;23.350;2023-03-13T05:09:04;49966.28;;;-146.31;89.90
2036;BME280;23642;42.658;23.350;2023-03-13T05:11:31;50038.47;;;-146.31;89.77
2036;BME280;23642;42.658;23.350;2023-03-13T05:13:58;50003.41;;;-146.31;90.78
2036;BME280;23642;42.658;23.350;2023-03-13T05:16:26;49986.91;;;-146.31;91.12
2036;BME280;23642;42.658;23.350;2023-03-13T05:18:53;49906.50;;;-146.31;92.10
2036;BME280;23642;42.658;23.350;2023-03-13T05:21:20;49877.63;;;-146.31;92.42
2036;BME280;23642;42.658;23.350;2023-03-13T05:23:47;49875.56;;;-146.31;92.24
2036;BME280;23642;42.658;23.350;2023-03-13T05:26:14;49844.63;;;-146.31;92.13
2036;BME280;23642;42.658;23.350;2023-03-13T05:28:40;49854.94;;;-146.31;92.12
2036;BME280;23642;42.658;23.350;2023-03-13T05:31:07;49896.19;;;-146.31;91.97
2036;BME280;23642;42.658;23.350;2023-03-13T05:33:35;49900.31;;;-146.31;91.31
2036;BME280;23642;42.658;23.350;2023-03-13T05:36:02;49947.75;;;-146.31;90.86
2036;BME280;23642;42.658;23.350;2023-03-13T05:38:30;49970.44;;;-146.31;90.68
2036;BME280;23642;42.658;23.350;2023-03-13T05:40:57;50081.78;;;-146.31;89.57
2036;BME280;23642;42.658;23.350;2023-03-13T05:43:24;50123.03;;;-146.31;89.33
2036;BME280;23642;42.658;23.350;2023-03-13T05:45:53;50242.63;;;-146.31;88.16
2036;BME280;23642;42.658;23.350;2023-03-13T05:48:20;50341.63;;;-146.31;87.67
2036;BME280;23642;42.658;23.350;2023-03-13T05:50:48;50407.63;;;-146.31;86.74
2036;BME280;23642;42.658;23.350;2023-03-13T05:53:15;50481.88;;;-146.31;86.11
2036;BME280;23642;42.658;23.350;2023-03-13T05:55:42;50529.31;;;-146.31;85.87
2036;BME280;23642;42.658;23.350;2023-03-13T05:58:09;50632.44;;;-146.31;84.38
2036;BME280;23642;42.658;23.350;2023-03-13T06:00:36;50828.38;;;-146.31;82.64
2036;BME280;23642;42.658;23.350;2023-03-13T06:03:03;51047.00;;;-146.31;80.74
2036;BME280;23642;42.658;23.350;2023-03-13T06:05:29;51259.47;;;-146.31;78.92
2036;BME280;23642;42.658;23.350;2023-03-13T06:07:58;51323.44;;;-146.31;79.38
2036;BME280;23642;42.658;23.350;2023-03-13T06:10:24;51486.41;;;-146.31;76.86
2036;BME280;23642;42.658;23.350;2023-03-13T06:12:53;51764.94;;;-146.31;75.13
2036;BME280;23642;42.658;23.350;2023-03-13T06:15:21;51890.78;;;-146.31;74.94
2036;BME280;23642;42.658;23.350;2023-03-13T06:17:48;51901.09;;;-146.31;75.60
2036;BME280;23642;42.658;23.350;2023-03-13T06:20:15;51930.00;;;-146.31;75.40
2036;BME280;23642;42.658;23.350;2023-03-13T06:22:42;51981.56;;;-146.31;73.95
2036;BME280;23642;42.658;23.350;2023-03-13T06:25:10;52076.50;;;-146.31;74.24
2036;BME280;23642;42.658;23.350;2023-03-13T06:27:37;52101.25;;;-146.31;73.93
2036;BME280;23642;42.658;23.350;2023-03-13T06:30:04;52144.59;;;-146.31;73.05
2036;BME280;23642;42.658;23.350;2023-03-13T06:32:31;52175.53;;;-146.31;73.17
2036;BME280;23642;42.658;23.350;2023-03-13T06:34:58;52220.94;;;-146.31;73.65
2036;BME280;23642;42.658;23.350;2023-03-13T06:37:25;52264.25;;;-146.31;73.20
2036;BME280;23642;42.658;23.350;2023-03-13T06:39:52;52280.78;;;-146.31;72.91
2036;BME280;23642;42.658;23.350;2023-03-13T06:42:20;52276.66;;;-146.31;73.22
2036;BME280;23642;42.658;23.350;2023-03-13T06:44:47;52317.91;;;-146.31;71.62
2036;BME280;23642;42.658;23.350;2023-03-13T06:47:14;52427.28;;;-146.31;70.91
2036;BME280;23642;42.658;23.350;2023-03-13T06:49:41;52443.78;;;-146.31;70.96
2036;BME280;23642;42.658;23.350;2023-03-13T06:52:08;52478.88;;;-146.31;70.45
2036;BME280;23642;42.658;23.350;2023-03-13T06:54:35;52509.81;;;-146.31;70.15
2036;BME280;23642;42.658;23.350;2023-03-13T06:57:02;52540.78;;;-146.31;70.24
2036;BME280;23642;42.658;23.350;2023-03-13T06:59:30;52553.16;;;-146.31;69.48
2036;BME280;23642;42.658;23.350;2023-03-13T07:01:57;52565.53;;;-146.31;69.64
2036;BME280;23642;42.658;23.350;2023-03-13T07:04:24;52602.69;;;-146.31;69.23
2036;BME280;23642;42.658;23.350;2023-03-13T07:06:51;52619.19;;;-146.31;68.30
2036;BME280;23642;42.658;23.350;2023-03-13T07:09:18;52677.00;;;-146.31;67.55
2036;BME280;23642;42.658;23.350;2023-03-13T07:11:45;52728.59;;;-146.31;67.38
2036;BME280;23642;42.658;23.350;2023-03-13T07:14:13;52720.31;;;-146.31;67.31
2036;BME280;23642;42.658;23.350;2023-03-13T07:16:41;52716.19;;;-146.31;67.98
2036;BME280;23642;42.658;23.350;2023-03-13T07:19:08;52755.41;;;-146.31;67.29
2036;BME280;23642;42.658;23.350;2023-03-13T07:21:35;52751.28;;;-146.31;67.40
2036;BME280;23642;42.658;23.350;2023-03-13T07:24:02;52767.78;;;-146.31;67.75
2036;BME280;23642;42.658;23.350;2023-03-13T07:26:29;52827.66;;;-146.31;67.48
2036;BME280;23642;42.658;23.350;2023-03-13T07:28:56;52825.59;;;-146.31;67.86
2036;BME280;23642;42.658;23.350;2023-03-13T07:31:26;52858.59;;;-146.31;67.24
2036;BME280;23642;42.658;23.350;2023-03-13T07:33:58;52835.91;;;-146.31;67.95
2036;BME280;23642;42.658;23.350;2023-03-13T07:36:25;52804.94;;;-146.31;68.63
2036;BME280;23642;42.658;23.350;2023-03-13T07:38:52;52773.97;;;-146.31;68.80
2036;BME280;23642;42.658;23.350;2023-03-13T07:41:20;52788.44;;;-146.31;68.73
2036;BME280;23642;42.658;23.350;2023-03-13T07:43:47;52825.59;;;-146.31;68.05
2036;BME280;23642;42.658;23.350;2023-03-13T07:46:17;52850.34;;;-146.31;68.00
2036;BME280;23642;42.658;23.350;2023-03-13T07:48:50;52850.34;;;-146.31;67.47
2036;BME280;23642;42.658;23.350;2023-03-13T07:51:19;52883.38;;;-146.31;67.02
2036;BME280;23642;42.658;23.350;2023-03-13T07:53:48;52862.72;;;-146.31;66.71
2036;BME280;23642;42.658;23.350;2023-03-13T07:56:17;52858.59;;;-146.31;66.54
2036;BME280;23642;42.658;23.350;2023-03-13T07:58:44;52850.34;;;-146.31;66.16
2036;BME280;23642;42.658;23.350;2023-03-13T08:01:16;52856.53;;;-146.31;66.67
2036;BME280;23642;42.658;23.350;2023-03-13T08:03:44;52930.84;;;-146.31;65.81
2036;BME280;23642;42.658;23.350;2023-03-13T08:06:14;52943.22;;;-146.31;65.93
2036;BME280;23642;42.658;23.350;2023-03-13T08:08:55;52978.31;;;-146.31;65.25
2036;BME280;23642;42.658;23.350;2023-03-13T08:11:25;52988.63;;;-146.31;65.64
2036;BME280;23642;42.658;23.350;2023-03-13T08:13:55;52980.38;;;-146.31;65.64
2036;BME280;23642;42.658;23.350;2023-03-13T08:16:24;52980.38;;;-146.31;64.85
2036;BME280;23642;42.658;23.350;2023-03-13T08:18:55;53029.91;;;-146.31;63.21
2036;BME280;23642;42.658;23.350;2023-03-13T08:21:34;53025.78;;;-146.31;63.22
2036;BME280;23642;42.658;23.350;2023-03-13T08:24:05;53034.03;;;-146.31;62.45
2036;BME280;23642;42.658;23.350;2023-03-13T08:26:33;53019.59;;;-146.31;61.81
2036;BME280;23642;42.658;23.350;2023-03-13T08:29:02;53067.06;;;-146.31;60.02
2036;BME280;23642;42.658;23.350;2023-03-13T08:31:35;53124.84;;;-146.31;59.72
2036;BME280;23642;42.658;23.350;2023-03-13T08:34:17;53085.63;;;-146.31;59.28
2036;BME280;23642;42.658;23.350;2023-03-13T08:36:46;53139.31;;;-146.31;58.83
2036;BME280;23642;42.658;23.350;2023-03-13T08:39:17;53186.78;;;-146.31;58.52
2036;BME280;23642;42.658;23.350;2023-03-13T08:41:57;53176.44;;;-146.31;58.86
2036;BME280;23642;42.658;23.350;2023-03-13T08:44:28;53100.09;;;-146.31;57.66
2036;BME280;23642;42.658;23.350;2023-03-13T08:46:57;53147.56;;;-146.31;57.08
2036;BME280;23642;42.658;23.350;2023-03-13T08:49:24;53168.19;;;-146.31;56.48
2036;BME280;23642;42.658;23.350;2023-03-13T08:51:53;53182.66;;;-146.31;56.46
2036;BME280;23642;42.658;23.350;2023-03-13T08:54:27;53176.44;;;-146.31;57.20
2036;BME280;23642;42.658;23.350;2023-03-13T08:56:57;53155.81;;;-146.31;57.33
2036;BME280;23642;42.658;23.350;2023-03-13T08:59:43;53232.19;;;-146.31;55.11
2036;BME280;23642;42.658;23.350;2023-03-13T09:02:21;53199.16;;;-146.31;54.90
2036;BME280;23642;42.658;23.350;2023-03-13T09:05:18;53263.16;;;-146.31;53.88
2036;BME280;23642;42.658;23.350;2023-03-13T09:07:49;53316.81;;;-146.31;52.93
2036;BME280;23642;42.658;23.350;2023-03-13T09:10:17;53294.09;;;-146.31;53.65
2036;BME280;23642;42.658;23.350;2023-03-13T09:12:44;53339.53;;;-146.31;54.46
2036;BME280;23642;42.658;23.350;2023-03-13T09:15:14;53292.03;;;-146.31;54.03
2036;BME280;23642;42.658;23.350;2023-03-13T09:17:41;53285.84;;;-146.31;53.18
2036;BME280;23642;42.658;23.350;2023-03-13T09:20:09;53302.38;;;-146.31;53.14
2036;BME280;23642;42.658;23.350;2023-03-13T09:22:36;53294.09;;;-146.31;52.21
2036;BME280;23642;42.658;23.350;2023-03-13T09:25:08;53329.19;;;-146.31;51.31
2036;BME280;23642;42.658;23.350;2023-03-13T09:27:43;53358.09;;;-146.31;51.28
2036;BME280;23642;42.658;23.350;2023-03-13T09:30:49;53372.53;;;-146.31;51.23
2036;BME280;23642;42.658;23.350;2023-03-13T09:33:32;53389.06;;;-146.31;51.27
2036;BME280;23642;42.658;23.350;2023-03-13T09:36:02;53428.28;;;-146.31;51.25
2036;BME280;23642;42.658;23.350;2023-03-13T09:38:32;53413.84;;;-146.31;50.98
2036;BME280;23642;42.658;23.350;2023-03-13T09:41:03;53473.69;;;-146.31;50.54
2036;BME280;23642;42.658;23.350;2023-03-13T09:43:39;53500.53;;;-146.31;50.69
2036;BME280;23642;42.658;23.350;2023-03-13T09:46:15;53527.38;;;-146.31;50.13
2036;BME280;23642;42.658;23.350;2023-03-13T09:48:46;53506.72;;;-146.31;50.53
2036;BME280;23642;42.658;23.350;2023-03-13T09:51:17;53566.59;;;-146.31;49.69
2036;BME280;23642;42.658;23.350;2023-03-13T09:53:50;53550.06;;;-146.31;49.61
2036;BME280;23642;42.658;23.350;2023-03-13T09:56:30;53510.84;;;-146.31;50.17
2036;BME280;23642;42.658;23.350;2023-03-13T09:59:08;53508.78;;;-146.31;50.06
2036;BME280;23642;42.658;23.350;2023-03-13T10:01:42;53574.84;;;-146.31;49.41
2036;BME280;23642;42.658;23.350;2023-03-13T10:04:29;53587.22;;;-146.31;48.56
2036;BME280;23642;42.658;23.350;2023-03-13T10:07:04;53609.94;;;-146.31;48.58
2036;BME280;23642;42.658;23.350;2023-03-13T10:09:32;53655.34;;;-146.31;47.94
2036;BME280;23642;42.658;23.350;2023-03-13T10:12:07;53723.47;;;-146.31;48.31
2036;BME280;23642;42.658;23.350;2023-03-13T10:14:45;53713.16;;;-146.31;48.70
2036;BME280;23642;42.658;23.350;2023-03-13T10:17:23;53744.13;;;-146.31;48.82
2036;BME280;23642;42.658;23.350;2023-03-13T10:20:20;53729.66;;;-146.31;48.00
2036;BME280;23642;42.658;23.350;2023-03-13T10:23:01;53713.16;;;-146.31;48.25
2036;BME280;23642;42.658;23.350;2023-03-13T10:25:42;53758.56;;;-146.31;47.80
2036;BME280;23642;42.658;23.350;2023-03-13T10:28:17;53804.00;;;-146.31;48.08
2036;BME280;23642;42.658;23.350;2023-03-13T10:30:49;53756.50;;;-146.31;48.39
2036;BME280;23642;42.658;23.350;2023-03-13T10:33:22;53795.72;;;-146.31;47.92
2036;BME280;23642;42.658;23.350;2023-03-13T10:36:21;53783.34;;;-146.31;47.96
2036;BME280;23642;42.658;23.350;2023-03-13T10:39:14;53789.53;;;-146.31;47.96
2036;BME280;23642;42.658;23.350;2023-03-13T10:41:45;53797.78;;;-146.31;46.76
2036;BME280;23642;42.658;23.350;2023-03-13T10:44:31;53804.00;;;-146.31;46.47
2036;BME280;23642;42.658;23.350;2023-03-13T10:47:03;53847.34;;;-146.31;46.78
2036;BME280;23642;42.658;23.350;2023-03-13T10:49:31;53857.66;;;-146.31;46.56
2036;BME280;23642;42.658;23.350;2023-03-13T10:52:04;53876.25;;;-146.31;46.39
2036;BME280;23642;42.658;23.350;2023-03-13T10:54:34;53886.56;;;-146.31;45.89
2036;BME280;23642;42.658;23.350;2023-03-13T10:57:27;53882.44;;;-146.31;45.99
2036;BME280;23642;42.658;23.350;2023-03-13T10:59:56;53917.53;;;-146.31;45.34
2036;BME280;23642;42.658;23.350;2023-03-13T11:02:27;53913.41;;;-146.31;45.89
2036;BME280;23642;42.658;23.350;2023-03-13T11:05:30;53967.09;;;-146.31;45.49
2036;BME280;23642;42.658;23.350;2023-03-13T11:08:10;53944.38;;;-146.31;46.01
2036;BME280;23642;42.658;23.350;2023-03-13T11:10:50;53944.38;;;-146.31;45.56
2036;BME280;23642;42.658;23.350;2023-03-13T11:13:28;53936.13;;;-146.31;44.93
2036;BME280;23642;42.658;23.350;2023-03-13T11:16:08;53962.94;;;-146.31;44.83
2036;BME280;23642;42.658;23.350;2023-03-13T11:18:41;53998.06;;;-146.31;44.09
2036;BME280;23642;42.658;23.350;2023-03-13T11:21:19;53960.88;;;-146.31;44.11
2036;BME280;23642;42.658;23.350;2023-03-13T11:23:55;54010.44;;;-146.31;44.36
2036;BME280;23642;42.658;23.350;2023-03-13T11:26:34;53969.16;;;-146.31;44.12
2036;BME280;23642;42.658;23.350;2023-03-13T11:29:08;53971.22;;;-146.31;43.99
2036;BME280;23642;42.658;23.350;2023-03-13T11:31:42;53956.75;;;-146.31;43.61
2036;BME280;23642;42.658;23.350;2023-03-13T11:34:20;53985.66;;;-146.31;43.27
2036;BME280;23642;42.658;23.350;2023-03-13T11:36:53;54020.75;;;-146.31;43.17
2036;BME280;23642;42.658;23.350;2023-03-13T11:39:37;54101.28;;;-146.31;43.54
2036;BME280;23642;42.658;23.350;2023-03-13T11:42:17;54055.84;;;-146.31;43.47
2036;BME280;23642;42.658;23.350;2023-03-13T11:44:51;54074.44;;;-146.31;43.31
2036;BME280;23642;42.658;23.350;2023-03-13T11:47:40;54196.25;;;-146.31;42.52
2036;BME280;23642;42.658;23.350;2023-03-13T11:50:29;54241.69;;;-146.31;42.48
2036;BME280;23642;42.658;23.350;2023-03-13T11:53:14;54252.00;;;-146.31;42.83
2036;BME280;23642;42.658;23.350;2023-03-13T11:55:49;54276.78;;;-146.31;43.19
2036;BME280;23642;42.658;23.350;2023-03-13T11:58:35;54305.69;;;-146.31;42.71
2036;BME280;23642;42.658;23.350;2023-03-13T12:01:07;54295.34;;;-146.31;43.01
2036;BME280;23642;42.658;23.350;2023-03-13T12:03:40;54353.19;;;-146.31;41.95
2036;BME280;23642;42.658;23.350;2023-03-13T12:06:19;54441.97;;;-146.31;42.85
2036;BME280;23642;42.658;23.350;2023-03-13T12:08:52;54435.75;;;-146.31;42.69
2036;BME280;23642;42.658;23.350;2023-03-13T12:11:25;54452.28;;;-146.31;42.46
2036;BME280;23642;42.658;23.350;2023-03-13T12:13:56;54483.25;;;-146.31;42.44
2036;BME280;23642;42.658;23.350;2023-03-13T12:16:36;54493.59;;;-146.31;43.06
2036;BME280;23642;42.658;23.350;2023-03-13T12:19:08;54475.00;;;-146.31;43.29
2036;BME280;23642;42.658;23.350;2023-03-13T12:21:41;54489.44;;;-146.31;42.63
2036;BME280;23642;42.658;23.350;2023-03-13T12:24:18;54481.19;;;-146.31;42.63
2036;BME280;23642;42.658;23.350;2023-03-13T12:26:55;54437.84;;;-146.31;42.52
2036;BME280;23642;42.658;23.350;2023-03-13T12:29:34;54481.19;;;-146.31;42.76
2036;BME280;23642;42.658;23.350;2023-03-13T12:32:08;54464.69;;;-146.31;42.24
2036;BME280;23642;42.658;23.350;2023-03-13T12:34:47;54462.59;;;-146.31;42.42
2036;BME280;23642;42.658;23.350;2023-03-13T12:37:25;54510.09;;;-146.31;42.54
2036;BME280;23642;42.658;23.350;2023-03-13T12:39:56;54501.84;;;-146.31;43.26
2036;BME280;23642;42.658;23.350;2023-03-13T12:42:38;54495.66;;;-146.31;42.06
2036;BME280;23642;42.658;23.350;2023-03-13T12:45:13;54499.78;;;-146.31;41.59
2036;BME280;23642;42.658;23.350;2023-03-13T12:48:07;54510.09;;;-146.31;41.78
2036;BME280;23642;42.658;23.350;2023-03-13T12:50:47;54549.34;;;-146.31;41.30
2036;BME280;23642;42.658;23.350;2023-03-13T12:53:39;54536.94;;;-146.31;40.62
2036;BME280;23642;42.658;23.350;2023-03-13T12:59:11;54557.59;;;-146.31;41.12
2036;BME280;23642;42.658;23.350;2023-03-13T13:01:43;54549.34;;;-146.31;41.18
2036;BME280;23642;42.658;23.350;2023-03-13T13:04:12;54547.28;;;-146.31;41.18
2036;BME280;23642;42.658;23.350;2023-03-13T13:06:51;54534.88;;;-146.31;41.17